One Hundred Palms, California
Current Conditions -  °F | °C
As of 4:56 PM on Thursday 27 Nov 2014 (Local Time) from KNJK Reporting Station
Clear Clear  
Wind Chill: 77°   Ceiling: Unl
Heat Index: 77°   Visibility: 10mi
Dew Point: 29°   Wind: 0mph
Humidity: 17%   Direction: NA
Pressure: 30.03"   Gusts: NA
Location:  33.093°N, 116.06°W
Report Text: KNJK 280056Z AUTO 00000KT 10SM CLR 25/M02 A3003 RMK AO2 SLP183 T02501017
Loading
Personal Weather Stations






























Interactive Weather Map New forecast layout! Learn more

10-Day Weather Forecast

Advertisements
Track Severe Weather on mobile